Red Rock, Oklahoma
Current Conditions -  °F | °C
As of 2:53 AM on Monday 20 Oct 2014 (Local Time) from KPNC Reporting Station
Few Clouds Few Clouds  
Wind Chill: 62°   Ceiling: Unl
Heat Index: 62°   Visibility: 10mi
Dew Point: 54°   Wind: 3mph
Humidity: 75%   Direction: 180°S
Pressure: 30.02"   Gusts: NA
Location:  36.46°N, 97.18°W
Report Text: KPNC 200753Z AUTO 18003KT 10SM FEW055 17/12 A3002 RMK AO2 SLP156 T01670122
Loading
Personal Weather Stations






























Interactive Weather Map
Tropical Storm Tracking
New forecast layout! Learn more

10-Day Weather Forecast

Advertisements
Track Severe Weather on mobile